首页
METAR-TAF:

METAR-TAF

机场 :

Greenville Downtown Airport

格林维尔, 南卡罗来纳州, 美国

纬度: 34-50-46N, 经度: 082-20-46W, 海拔: 319米

当前天气观测

该预报发布于1小时和1分钟前的04:53 UTC
静风
温度 26°C
湿度 51%
气压 1018 hPa
能見度: 16.1公里
天空无云

METAR: KGMU 270453Z AUTO 00000KT 10SM CLR 26/15 A3006 RMK AO2 SLP167 T02560150 403610222

时间: 01:54 (05:54 UTC)

预报

该预报发布于20分钟前的05:34 UTC
预报有效从27日的 06点(UTC)到 28日的 06点(UTC)
风速3节,风向西
能見度: 10公里
天空无云
从 27日的 1700点(UTC)
风速9节,风向西,有时为16节阵风
能見度: 10公里
少量云层高于7000英尺
从 28日的 0100点(UTC)
风速3节,风向西转西北
能見度: 10公里
少量云层高于20000英尺

TAF: KGMU 270534Z 2706/2806 28003KT P6SM SKC FM271700 27009G16KT P6SM FEW070 FM280100 29003KT P6SM FEW200

超过4000个机场的气象观测和天气预报(METAR&TAF报告)。

可查询的气象台以黄色和红色小点在地图上表示。

将鼠标移到小点上方,可查看气象台名称。

然后点击查看天气观测和预报。

如需切换地图:点击带黑十字的绿色按钮放大地图;点击带横线的绿色按钮缩小地图;或者点击绿色箭头查看邻近地区的地图。


METAR-TAF: